MDT,Max TemperatureF,Mean TemperatureF,Min TemperatureF,Max Dew PointF,MeanDew PointF,Min DewpointF,Max Humidity, Mean Humidity, Min Humidity, Max Sea Level PressureIn, Mean Sea Level PressureIn, Min Sea Level PressureIn, Max VisibilityMiles, Mean VisibilityMiles, Min VisibilityMiles, Max Wind SpeedMPH, Mean Wind SpeedMPH, Max Gust SpeedMPH,PrecipitationIn, CloudCover, Events, WindDirDegrees
2013-5-1,64,49,33,30,8,-14,53,30,6,30.23,29.95,29.61,10,10,10,25,11,49,0.00,0,,328
2013-5-2,63,48,32,13,3,-4,38,23,7,30.44,30.33,30.26,10,10,10,22,10,31,0.00,0,,345
2013-5-3,69,46,22,13,5,-6,46,26,6,30.28,30.10,29.91,10,10,10,15,7,26,0.00,0,,183
2013-5-4,76,51,25,16,8,0,50,28,5,29.93,29.83,29.70,10,10,10,29,7,38,0.00,0,,141
2013-5-5,76,65,54,25,13,6,30,20,9,29.91,29.82,29.73,10,10,10,29,14,40,0.00,3,,164
2013-5-6,59,52,44,44,39,28,86,60,33,30.11,29.96,29.81,10,8,2,18,5,28,0.55,7,Rain-Thunderstorm,126
2013-5-7,69,54,38,43,37,24,92,56,19,30.01,29.90,29.81,10,10,9,24,7,26,0.01,4,,286
2013-5-8,59,50,40,38,35,30,85,61,37,30.04,29.96,29.84,10,10,8,26,7,31,0.08,4,Rain-Thunderstorm,180
2013-5-9,59,49,39,44,38,34,85,66,47,30.15,30.03,29.96,10,10,3,18,4,24,0.08,5,Rain,91
2013-5-10,65,49,33,43,37,31,89,62,34,30.21,30.13,30.07,10,10,10,14,3,17,T,1,Thunderstorm,300
2013-5-11,71,53,34,38,34,30,85,55,24,30.36,30.26,30.20,10,10,10,20,5,24,0.00,1,Thunderstorm,96
2013-5-12,78,57,36,36,32,26,82,49,15,30.27,30.17,30.06,10,10,10,17,5,25,0.00,1,,351
2013-5-13,83,61,38,37,32,26,76,45,13,30.17,30.09,29.99,10,10,10,20,5,37,0.00,0,,63
2013-5-14,83,63,42,38,34,26,70,42,14,30.00,29.91,29.81,10,10,10,26,6,35,0.00,0,,66
2013-5-15,85,65,44,39,26,6,70,38,6,29.91,29.81,29.73,10,10,10,24,9,36,0.00,0,,245
2013-5-16,83,63,42,29,23,15,49,29,9,29.88,29.80,29.74,10,10,10,22,8,31,0.00,0,,89
2013-5-17,82,63,44,28,16,1,45,25,5,29.87,29.80,29.74,10,10,10,29,10,33,0.00,0,,202
2013-5-18,73,60,47,33,26,17,60,36,12,29.95,29.82,29.73,10,10,10,29,11,38,0.00,3,,213
2013-5-19,69,54,38,33,27,20,70,43,16,29.99,29.84,29.78,10,10,10,22,8,32,T,3,,314
2013-5-20,66,54,41,34,30,23,62,41,20,30.04,29.88,29.82,10,10,10,25,8,36,T,4,Rain,350
2013-5-21,73,54,35,32,28,20,76,46,15,30.01,29.91,29.80,10,10,10,16,7,23,0.00,0,,21
2013-5-22,84,60,36,32,22,16,64,37,9,29.83,29.75,29.65,10,10,10,23,8,29,0.00,0,,194
2013-5-23,87,64,41,26,16,9,45,26,6,29.80,29.75,29.68,10,10,10,32,14,41,0.00,0,,199
2013-5-24,83,63,42,26,18,6,45,25,5,29.93,29.87,29.78,10,10,10,25,9,35,0.00,0,,192
2013-5-25,84,61,37,25,17,7,48,28,7,29.97,29.89,29.81,10,10,10,25,8,30,0.00,0,,180
2013-5-26,81,63,44,26,15,8,37,22,7,29.94,29.87,29.79,10,10,10,23,9,33,0.00,0,,172
2013-5-27,80,62,43,24,17,12,40,24,8,29.90,29.81,29.72,10,10,10,23,9,30,0.00,0,,152
2013-5-28,79,58,37,41,25,13,54,31,8,29.84,29.67,29.54,10,10,10,28,7,36,T,2,Rain,236
2013-5-29,71,55,39,40,28,14,79,45,11,29.83,29.67,29.62,10,10,10,22,8,28,0.00,2,,292
2013-5-30,77,61,45,33,24,13,58,34,9,29.81,29.75,29.69,10,10,10,28,9,39,0.00,2,,311
2013-5-31,76,57,38,27,17,7,59,33,7,29.99,29.90,29.81,10,10,10,23,9,32,0.00,0,,3